Terminal Aerodrome Forecast
Issued by NWS La Crosse, WI

Home | Current Version | Previous Version | Text Only | Print | Product List | Glossary On
Versions: 1 2 3 4 5 6 7 8 9 10 11 12 13 14 15 16 17 18 19 20 21
000
FTUS43 KARX 261720
TAFLSE
TAF
KLSE 261720Z 2618/2718 VRB05KT P6SM VCSH OVC110
      TEMPO 2618/2620 4SM SHRA BKN020
     FM262300 VRB03KT P6SM BKN020
     FM270800 VRB03KT 4SM BR SCT120
     FM271300 01004KT P6SM FEW150=

USA.gov is the U.S. government's official web portal to all federal, state and local government web resources and services.